Oakland, RI

3:44 PM EST on December 25, 2014 (GMT -0500)
North Central State | Change Station
CLOSE
Current Station
Airport
Location: Pawtucket,
Elevation: 440 ft
Nearby Weather Stations

Elev 440 ft 41.92 °N, 71.49 °W | Updated 23 hours ago

Mostly Cloudy
Mostly Cloudy
46 °F
Feels Like 46 °F
N
14
Wind Variable Wind from West
Gusts 34 mph

Today
High -- | Low -- °F
--% Chance of Precip.
Yesterday
High -- | Low -- °F
Precip. -- in
7:12 AM 4:20 PM
Waxing Crescent, 19% visible
Pressure 29.78 in
Visibility 0.8 miles
Clouds Overcast 300 ft
Dew Point 36 °F
Humidity 62%
Rainfall 0.08 in
Snow Depth Not available.
UV 0 out of 12
Pollen .10 out of 12
Air Quality Not available.
Flu Activity Not available.
METAR KSFZ 242135Z 00000KT 3/4SM OVC003 07/04 A2978 RMK AO1 P0008

More Conditions Fewer Conditions

Pressure 29.78 in
Visibility 0.8 miles
Clouds Overcast 300 ft
Dew Point 36 °F
Humidity 62%
Rainfall 0.08 in
Snow Depth Not available.
UV 0 out of 12
Pollen .10 out of 12
Air Quality Not available.
Flu Activity Not available.
METAR KSFZ 242135Z 00000KT 3/4SM OVC003 07/04 A2978 RMK AO1 P0008

More Conditions Fewer Conditions

10-Day Weather Forecast

Almanac

Astronomy

Dec. 25, 2014 Rise Set
Actual Time
Civil Twilight
Nautical Twilight
Astronomical Twilight
Moon
Length of Visible Light
Length of Day
Tomorrow will be .
, % of the Moon is Illuminated

Today's Extremes

State Highs State Lows

Community

WunderPhotos

Upload Photos

1,780,392 photos uploaded!

WunderBlogs® & News

Nearby

Air Quality

  Air Quality AQ Index Pollutant
Not available.

Snow Depth

Station Depth Elevation

Earthquake Activity

City Distance Mag. Time & Date
Minimum magnitude displayed is 2.5.

Coastal Water Temperatures

Place Temperature

Nearby Weather Stations